sensor_id;sensor_type;location;lat;lon;timestamp;pressure;altitude;pressure_sealevel;temperature;humidity
66627;BME280;53498;50.422;14.912;2023-03-11T00:01:01;96543.66;;;5.61;100.00
66627;BME280;53498;50.422;14.912;2023-03-11T00:03:27;96544.38;;;5.66;100.00
66627;BME280;53498;50.422;14.912;2023-03-11T00:05:54;96549.06;;;5.49;100.00
66627;BME280;53498;50.422;14.912;2023-03-11T00:08:23;96555.00;;;5.51;100.00
66627;BME280;53498;50.422;14.912;2023-03-11T00:10:57;96549.78;;;5.55;100.00
66627;BME280;53498;50.422;14.912;2023-03-11T00:13:25;96548.22;;;5.47;100.00
66627;BME280;53498;50.422;14.912;2023-03-11T00:15:52;96550.75;;;5.48;100.00
66627;BME280;53498;50.422;14.912;2023-03-11T00:18:21;96540.50;;;5.47;100.00
66627;BME280;53498;50.422;14.912;2023-03-11T00:20:52;96544.41;;;5.23;100.00
66627;BME280;53498;50.422;14.912;2023-03-11T00:23:18;96555.53;;;5.25;100.00
66627;BME280;53498;50.422;14.912;2023-03-11T00:25:45;96557.38;;;5.18;100.00
66627;BME280;53498;50.422;14.912;2023-03-11T00:28:12;96570.44;;;5.09;100.00
66627;BME280;53498;50.422;14.912;2023-03-11T00:30:40;96556.06;;;4.97;100.00
66627;BME280;53498;50.422;14.912;2023-03-11T00:33:07;96568.97;;;4.94;100.00
66627;BME280;53498;50.422;14.912;2023-03-11T00:35:34;96577.66;;;4.88;100.00
66627;BME280;53498;50.422;14.912;2023-03-11T00:38:10;96589.97;;;4.73;100.00
66627;BME280;53498;50.422;14.912;2023-03-11T00:40:37;96588.59;;;4.52;100.00
66627;BME280;53498;50.422;14.912;2023-03-11T00:43:03;96600.81;;;4.37;100.00
66627;BME280;53498;50.422;14.912;2023-03-11T00:45:29;96609.03;;;4.04;100.00
66627;BME280;53498;50.422;14.912;2023-03-11T00:47:55;96605.81;;;3.89;100.00
66627;BME280;53498;50.422;14.912;2023-03-11T00:50:23;96619.03;;;3.59;100.00
66627;BME280;53498;50.422;14.912;2023-03-11T00:52:57;96620.78;;;3.57;100.00
66627;BME280;53498;50.422;14.912;2023-03-11T00:55:25;96626.00;;;3.47;100.00
66627;BME280;53498;50.422;14.912;2023-03-11T00:57:53;96628.78;;;3.32;100.00
66627;BME280;53498;50.422;14.912;2023-03-11T01:00:20;96614.28;;;3.25;100.00
66627;BME280;53498;50.422;14.912;2023-03-11T01:02:46;96637.44;;;3.22;100.00
66627;BME280;53498;50.422;14.912;2023-03-11T01:05:12;96638.34;;;3.16;100.00
66627;BME280;53498;50.422;14.912;2023-03-11T01:07:38;96655.56;;;3.07;100.00
66627;BME280;53498;50.422;14.912;2023-03-11T01:10:05;96674.56;;;2.89;100.00
66627;BME280;53498;50.422;14.912;2023-03-11T01:12:32;96664.28;;;2.90;100.00
66627;BME280;53498;50.422;14.912;2023-03-11T01:14:58;96674.72;;;2.70;100.00
66627;BME280;53498;50.422;14.912;2023-03-11T01:17:24;96684.13;;;2.70;100.00
66627;BME280;53498;50.422;14.912;2023-03-11T01:19:49;96679.97;;;2.52;100.00
66627;BME280;53498;50.422;14.912;2023-03-11T01:22:16;96697.97;;;2.43;100.00
66627;BME280;53498;50.422;14.912;2023-03-11T01:24:42;96702.25;;;2.44;100.00
66627;BME280;53498;50.422;14.912;2023-03-11T01:27:08;96705.81;;;2.23;100.00
66627;BME280;53498;50.422;14.912;2023-03-11T01:29:33;96705.00;;;2.08;100.00
66627;BME280;53498;50.422;14.912;2023-03-11T01:31:59;96712.75;;;1.99;100.00
66627;BME280;53498;50.422;14.912;2023-03-11T01:34:24;96715.31;;;1.99;100.00
66627;BME280;53498;50.422;14.912;2023-03-11T01:36:50;96707.59;;;2.02;100.00
66627;BME280;53498;50.422;14.912;2023-03-11T01:39:15;96718.75;;;1.95;100.00
66627;BME280;53498;50.422;14.912;2023-03-11T01:41:41;96725.56;;;1.96;100.00
66627;BME280;53498;50.422;14.912;2023-03-11T01:44:10;96735.84;;;1.92;100.00
66627;BME280;53498;50.422;14.912;2023-03-11T01:49:31;96743.53;;;1.87;100.00
66627;BME280;53498;50.422;14.912;2023-03-11T01:52:00;96752.09;;;1.88;100.00
66627;BME280;53498;50.422;14.912;2023-03-11T01:54:30;96757.25;;;1.72;100.00
66627;BME280;53498;50.422;14.912;2023-03-11T01:56:58;96768.38;;;1.70;100.00
66627;BME280;53498;50.422;14.912;2023-03-11T01:59:29;96779.47;;;1.66;100.00
66627;BME280;53498;50.422;14.912;2023-03-11T02:02:13;96782.06;;;1.56;100.00
66627;BME280;53498;50.422;14.912;2023-03-11T02:04:42;96786.34;;;1.60;100.00
66627;BME280;53498;50.422;14.912;2023-03-11T02:07:09;96794.03;;;1.54;100.00
66627;BME280;53498;50.422;14.912;2023-03-11T02:09:36;96790.59;;;1.58;100.00
66627;BME280;53498;50.422;14.912;2023-03-11T02:12:08;96801.72;;;1.44;100.00
66627;BME280;53498;50.422;14.912;2023-03-11T02:14:34;96804.28;;;1.39;100.00
66627;BME280;53498;50.422;14.912;2023-03-11T02:17:01;96795.75;;;1.40;100.00
66627;BME280;53498;50.422;14.912;2023-03-11T02:22:04;96805.16;;;1.20;100.00
66627;BME280;53498;50.422;14.912;2023-03-11T02:24:40;96809.41;;;1.08;100.00
66627;BME280;53498;50.422;14.912;2023-03-11T02:27:09;96811.97;;;1.13;100.00
66627;BME280;53498;50.422;14.912;2023-03-11T02:29:37;96816.22;;;1.09;100.00
66627;BME280;53498;50.422;14.912;2023-03-11T02:32:06;96816.22;;;0.99;100.00
66627;BME280;53498;50.422;14.912;2023-03-11T02:34:34;96827.31;;;1.22;100.00
66627;BME280;53498;50.422;14.912;2023-03-11T02:37:03;96814.50;;;1.02;100.00
66627;BME280;53498;50.422;14.912;2023-03-11T02:39:40;96823.88;;;1.03;100.00
66627;BME280;53498;50.422;14.912;2023-03-11T02:42:14;96830.72;;;1.01;100.00
66627;BME280;53498;50.422;14.912;2023-03-11T02:44:43;96830.72;;;1.00;100.00
66627;BME280;53498;50.422;14.912;2023-03-11T02:47:10;96834.97;;;0.96;100.00
66627;BME280;53498;50.422;14.912;2023-03-11T02:49:35;96839.25;;;1.03;100.00
66627;BME280;53498;50.422;14.912;2023-03-11T02:52:02;96841.78;;;0.85;100.00
66627;BME280;53498;50.422;14.912;2023-03-11T02:54:28;96856.28;;;0.84;100.00
66627;BME280;53498;50.422;14.912;2023-03-11T02:56:53;96851.19;;;0.97;100.00
66627;BME280;53498;50.422;14.912;2023-03-11T02:59:19;96859.72;;;0.89;100.00
66627;BME280;53498;50.422;14.912;2023-03-11T03:01:44;96856.31;;;0.98;100.00
66627;BME280;53498;50.422;14.912;2023-03-11T03:04:10;96864.00;;;0.92;100.00
66627;BME280;53498;50.422;14.912;2023-03-11T03:06:36;96869.94;;;0.89;100.00
66627;BME280;53498;50.422;14.912;2023-03-11T03:09:02;96877.63;;;0.88;100.00
66627;BME280;53498;50.422;14.912;2023-03-11T03:11:28;96876.75;;;0.87;100.00
66627;BME280;53498;50.422;14.912;2023-03-11T03:13:53;96884.44;;;0.90;100.00
66627;BME280;53498;50.422;14.912;2023-03-11T03:16:19;96881.88;;;0.90;100.00
66627;BME280;53498;50.422;14.912;2023-03-11T03:18:44;96889.59;;;0.98;100.00
66627;BME280;53498;50.422;14.912;2023-03-11T03:21:10;96890.44;;;0.91;100.00
66627;BME280;53498;50.422;14.912;2023-03-11T03:23:36;96893.00;;;0.97;100.00
66627;BME280;53498;50.422;14.912;2023-03-11T03:26:03;96893.00;;;0.91;100.00
66627;BME280;53498;50.422;14.912;2023-03-11T03:28:29;96898.09;;;0.85;100.00
66627;BME280;53498;50.422;14.912;2023-03-11T03:30:55;96902.34;;;0.87;100.00
66627;BME280;53498;50.422;14.912;2023-03-11T03:33:27;96904.09;;;0.88;100.00
66627;BME280;53498;50.422;14.912;2023-03-11T03:35:52;96903.25;;;0.91;100.00
66627;BME280;53498;50.422;14.912;2023-03-11T03:38:18;96916.06;;;1.03;100.00
66627;BME280;53498;50.422;14.912;2023-03-11T03:40:47;96917.75;;;0.95;100.00
66627;BME280;53498;50.422;14.912;2023-03-11T03:43:12;96915.19;;;0.95;100.00
66627;BME280;53498;50.422;14.912;2023-03-11T03:45:38;96922.00;;;0.96;100.00
66627;BME280;53498;50.422;14.912;2023-03-11T03:48:04;96929.69;;;0.95;100.00
66627;BME280;53498;50.422;14.912;2023-03-11T03:50:29;96929.69;;;0.93;100.00
66627;BME280;53498;50.422;14.912;2023-03-11T03:52:55;96933.06;;;0.83;100.00
66627;BME280;53498;50.422;14.912;2023-03-11T03:55:20;96936.53;;;0.91;100.00
66627;BME280;53498;50.422;14.912;2023-03-11T03:57:46;96948.47;;;0.97;100.00
66627;BME280;53498;50.422;14.912;2023-03-11T04:00:12;96946.72;;;0.85;100.00
66627;BME280;53498;50.422;14.912;2023-03-11T04:02:38;96947.59;;;0.93;100.00
66627;BME280;53498;50.422;14.912;2023-03-11T04:05:04;96952.72;;;0.91;100.00
66627;BME280;53498;50.422;14.912;2023-03-11T04:07:32;96959.56;;;0.91;100.00
66627;BME280;53498;50.422;14.912;2023-03-11T04:09:58;96957.84;;;0.93;100.00
66627;BME280;53498;50.422;14.912;2023-03-11T04:12:23;96956.13;;;0.93;100.00
66627;BME280;53498;50.422;14.912;2023-03-11T04:14:49;96961.25;;;0.92;100.00
66627;BME280;53498;50.422;14.912;2023-03-11T04:17:15;96964.69;;;1.00;100.00
66627;BME280;53498;50.422;14.912;2023-03-11T04:19:42;96961.28;;;0.95;100.00
66627;BME280;53498;50.422;14.912;2023-03-11T04:22:07;96968.97;;;0.98;100.00
66627;BME280;53498;50.422;14.912;2023-03-11T04:24:33;96976.63;;;0.98;100.00
66627;BME280;53498;50.422;14.912;2023-03-11T04:26:59;96976.59;;;0.89;100.00
66627;BME280;53498;50.422;14.912;2023-03-11T04:29:24;96974.88;;;0.86;100.00
66627;BME280;53498;50.422;14.912;2023-03-11T04:31:50;96985.13;;;0.89;100.00
66627;BME280;53498;50.422;14.912;2023-03-11T04:34:15;96973.97;;;0.75;100.00
66627;BME280;53498;50.422;14.912;2023-03-11T04:36:41;96985.94;;;0.76;100.00
66627;BME280;53498;50.422;14.912;2023-03-11T04:39:07;96990.19;;;0.77;100.00
66627;BME280;53498;50.422;14.912;2023-03-11T04:41:32;96998.69;;;0.75;100.00
66627;BME280;53498;50.422;14.912;2023-03-11T04:43:58;97005.50;;;0.66;100.00
66627;BME280;53498;50.422;14.912;2023-03-11T04:46:24;97005.53;;;0.77;100.00
66627;BME280;53498;50.422;14.912;2023-03-11T04:48:50;97009.69;;;0.58;100.00
66627;BME280;53498;50.422;14.912;2023-03-11T04:51:15;97014.91;;;0.71;100.00
66627;BME280;53498;50.422;14.912;2023-03-11T04:53:41;97018.28;;;0.63;100.00
66627;BME280;53498;50.422;14.912;2023-03-11T04:56:07;97018.34;;;0.77;100.00
66627;BME280;53498;50.422;14.912;2023-03-11T04:58:32;97020.81;;;0.60;100.00
66627;BME280;53498;50.422;14.912;2023-03-11T05:00:58;97032.75;;;0.64;100.00
66627;BME280;53498;50.422;14.912;2023-03-11T05:03:24;97036.13;;;0.59;100.00
66627;BME280;53498;50.422;14.912;2023-03-11T05:05:49;97037.06;;;0.70;100.00
66627;BME280;53498;50.422;14.912;2023-03-11T05:08:17;97042.19;;;0.75;100.00
66627;BME280;53498;50.422;14.912;2023-03-11T05:10:42;97056.72;;;0.73;100.00
66627;BME280;53498;50.422;14.912;2023-03-11T05:13:08;97062.66;;;0.72;100.00
66627;BME280;53498;50.422;14.912;2023-03-11T05:15:34;97061.81;;;0.69;100.00
66627;BME280;53498;50.422;14.912;2023-03-11T05:18:01;97078.03;;;0.75;100.00
66627;BME280;53498;50.422;14.912;2023-03-11T05:20:26;97082.34;;;0.80;100.00
66627;BME280;53498;50.422;14.912;2023-03-11T05:22:52;97084.03;;;0.80;100.00
66627;BME280;53498;50.422;14.912;2023-03-11T05:25:22;97099.41;;;0.80;100.00
66627;BME280;53498;50.422;14.912;2023-03-11T05:27:47;97099.34;;;0.74;100.00
66627;BME280;53498;50.422;14.912;2023-03-11T05:30:13;97105.22;;;0.62;100.00
66627;BME280;53498;50.422;14.912;2023-03-11T05:32:39;97111.28;;;0.70;100.00
66627;BME280;53498;50.422;14.912;2023-03-11T05:35:05;97127.47;;;0.67;100.00
66627;BME280;53498;50.422;14.912;2023-03-11T05:37:31;97134.28;;;0.68;100.00
66627;BME280;53498;50.422;14.912;2023-03-11T05:39:57;97133.47;;;0.69;100.00
66627;BME280;53498;50.422;14.912;2023-03-11T05:42:22;97130.91;;;0.71;100.00
66627;BME280;53498;50.422;14.912;2023-03-11T05:44:48;97142.78;;;0.64;100.00
66627;BME280;53498;50.422;14.912;2023-03-11T05:47:19;97161.66;;;0.77;100.00
66627;BME280;53498;50.422;14.912;2023-03-11T05:49:46;97162.50;;;0.78;100.00
66627;BME280;53498;50.422;14.912;2023-03-11T05:52:13;97172.69;;;0.72;100.00
66627;BME280;53498;50.422;14.912;2023-03-11T05:54:38;97177.03;;;0.80;100.00
66627;BME280;53498;50.422;14.912;2023-03-11T05:57:04;97180.34;;;0.68;100.00
66627;BME280;53498;50.422;14.912;2023-03-11T05:59:30;97189.78;;;0.73;100.00
66627;BME280;53498;50.422;14.912;2023-03-11T06:01:57;97195.81;;;0.79;100.00
66627;BME280;53498;50.422;14.912;2023-03-11T06:04:23;97199.97;;;0.68;100.00
66627;BME280;53498;50.422;14.912;2023-03-11T06:06:48;97211.91;;;0.67;100.00
66627;BME280;53498;50.422;14.912;2023-03-11T06:09:14;97216.25;;;0.78;100.00
66627;BME280;53498;50.422;14.912;2023-03-11T06:11:40;97230.72;;;0.73;100.00
66627;BME280;53498;50.422;14.912;2023-03-11T06:14:06;97229.88;;;0.75;100.00
66627;BME280;53498;50.422;14.912;2023-03-11T06:16:32;97234.16;;;0.78;100.00
66627;BME280;53498;50.422;14.912;2023-03-11T06:18:57;97238.44;;;0.76;100.00
66627;BME280;53498;50.422;14.912;2023-03-11T06:21:25;97249.47;;;0.72;100.00
66627;BME280;53498;50.422;14.912;2023-03-11T06:23:51;97253.78;;;0.76;100.00
66627;BME280;53498;50.422;14.912;2023-03-11T06:26:19;97259.81;;;0.84;100.00
66627;BME280;53498;50.422;14.912;2023-03-11T06:28:45;97265.84;;;0.89;100.00
66627;BME280;53498;50.422;14.912;2023-03-11T06:31:22;97282.00;;;0.82;100.00
66627;BME280;53498;50.422;14.912;2023-03-11T06:33:52;97293.97;;;0.86;100.00
66627;BME280;53498;50.422;14.912;2023-03-11T06:36:18;97290.44;;;0.75;100.00
66627;BME280;53498;50.422;14.912;2023-03-11T06:38:44;97297.34;;;0.82;100.00
66627;BME280;53498;50.422;14.912;2023-03-11T06:41:15;97312.75;;;0.85;100.00
66627;BME280;53498;50.422;14.912;2023-03-11T06:43:41;97318.56;;;0.72;100.00
66627;BME280;53498;50.422;14.912;2023-03-11T06:46:18;97331.41;;;0.78;100.00
66627;BME280;53498;50.422;14.912;2023-03-11T06:48:44;97348.44;;;0.73;100.00
66627;BME280;53498;50.422;14.912;2023-03-11T06:51:11;97352.59;;;0.63;100.00
66627;BME280;53498;50.422;14.912;2023-03-11T06:53:37;97357.81;;;0.74;100.00
66627;BME280;53498;50.422;14.912;2023-03-11T06:56:11;97364.75;;;0.82;100.00
66627;BME280;53498;50.422;14.912;2023-03-11T06:58:38;97376.72;;;0.86;100.00
66627;BME280;53498;50.422;14.912;2023-03-11T07:01:07;97377.72;;;0.98;100.00
66627;BME280;53498;50.422;14.912;2023-03-11T07:03:33;97391.41;;;1.01;100.00
66627;BME280;53498;50.422;14.912;2023-03-11T07:05:59;97396.28;;;0.80;100.00
66627;BME280;53498;50.422;14.912;2023-03-11T07:08:25;97410.88;;;0.85;100.00
66627;BME280;53498;50.422;14.912;2023-03-11T07:11:23;97409.94;;;0.80;100.00
66627;BME280;53498;50.422;14.912;2023-03-11T07:13:50;97429.59;;;0.84;100.00
66627;BME280;53498;50.422;14.912;2023-03-11T07:16:18;97431.97;;;0.67;100.00
66627;BME280;53498;50.422;14.912;2023-03-11T07:18:46;97452.53;;;0.74;100.00
66627;BME280;53498;50.422;14.912;2023-03-11T07:21:18;97459.19;;;0.62;100.00
66627;BME280;53498;50.422;14.912;2023-03-11T07:23:43;97474.53;;;0.62;100.00
66627;BME280;53498;50.422;14.912;2023-03-11T07:26:12;97468.53;;;0.59;100.00
66627;BME280;53498;50.422;14.912;2023-03-11T07:28:38;97476.06;;;0.50;100.00
66627;BME280;53498;50.422;14.912;2023-03-11T07:31:12;97480.53;;;0.63;100.00
66627;BME280;53498;50.422;14.912;2023-03-11T07:33:38;97476.28;;;0.63;100.00
66627;BME280;53498;50.422;14.912;2023-03-11T07:36:10;97493.31;;;0.61;100.00
66627;BME280;53498;50.422;14.912;2023-03-11T07:38:36;97490.91;;;0.74;100.00
66627;BME280;53498;50.422;14.912;2023-03-11T07:41:02;97490.81;;;0.67;100.00
66627;BME280;53498;50.422;14.912;2023-03-11T07:43:27;97501.91;;;0.66;100.00
66627;BME280;53498;50.422;14.912;2023-03-11T07:46:14;97510.47;;;0.70;100.00
66627;BME280;53498;50.422;14.912;2023-03-11T07:48:43;97519.06;;;0.74;100.00
66627;BME280;53498;50.422;14.912;2023-03-11T07:51:12;97524.91;;;0.65;100.00
66627;BME280;53498;50.422;14.912;2023-03-11T07:53:39;97530.19;;;0.76;100.00
66627;BME280;53498;50.422;14.912;2023-03-11T07:56:06;97538.81;;;0.82;100.00
66627;BME280;53498;50.422;14.912;2023-03-11T07:58:32;97531.91;;;0.78;100.00
66627;BME280;53498;50.422;14.912;2023-03-11T08:01:07;97542.09;;;0.74;100.00
66627;BME280;53498;50.422;14.912;2023-03-11T08:03:33;97548.09;;;0.77;100.00
66627;BME280;53498;50.422;14.912;2023-03-11T08:05:59;97575.31;;;0.71;100.00
66627;BME280;53498;50.422;14.912;2023-03-11T08:08:24;97564.94;;;0.61;100.00
66627;BME280;53498;50.422;14.912;2023-03-11T08:10:50;97578.72;;;0.69;100.00
66627;BME280;53498;50.422;14.912;2023-03-11T08:13:16;97579.63;;;0.73;100.00
66627;BME280;53498;50.422;14.912;2023-03-11T08:15:42;97596.72;;;0.76;100.00
66627;BME280;53498;50.422;14.912;2023-03-11T08:18:07;97591.63;;;0.76;100.00
66627;BME280;53498;50.422;14.912;2023-03-11T08:20:36;97601.84;;;0.76;100.00
66627;BME280;53498;50.422;14.912;2023-03-11T08:23:01;97594.03;;;0.66;100.00
66627;BME280;53498;50.422;14.912;2023-03-11T08:25:27;97614.66;;;0.76;100.00
66627;BME280;53498;50.422;14.912;2023-03-11T08:27:53;97624.16;;;0.84;100.00
66627;BME280;53498;50.422;14.912;2023-03-11T08:30:19;97626.66;;;0.80;100.00
66627;BME280;53498;50.422;14.912;2023-03-11T08:32:45;97636.03;;;0.81;100.00
66627;BME280;53498;50.422;14.912;2023-03-11T08:35:11;97634.25;;;0.75;100.00
66627;BME280;53498;50.422;14.912;2023-03-11T08:37:43;97647.88;;;0.74;100.00
66627;BME280;53498;50.422;14.912;2023-03-11T08:40:09;97646.31;;;0.84;100.00
66627;BME280;53498;50.422;14.912;2023-03-11T08:42:35;97658.38;;;0.89;100.00
66627;BME280;53498;50.422;14.912;2023-03-11T08:45:01;97658.41;;;0.91;100.00
66627;BME280;53498;50.422;14.912;2023-03-11T08:47:27;97646.31;;;0.84;100.00
66627;BME280;53498;50.422;14.912;2023-03-11T08:49:53;97661.56;;;0.76;100.00
66627;BME280;53498;50.422;14.912;2023-03-11T08:52:19;97665.75;;;0.69;100.00
66627;BME280;53498;50.422;14.912;2023-03-11T08:54:45;97676.84;;;0.72;100.00
66627;BME280;53498;50.422;14.912;2023-03-11T08:57:10;97674.19;;;0.65;100.00
66627;BME280;53498;50.422;14.912;2023-03-11T08:59:36;97684.31;;;0.59;100.00
66627;BME280;53498;50.422;14.912;2023-03-11T09:02:01;97694.69;;;0.68;100.00
66627;BME280;53498;50.422;14.912;2023-03-11T09:04:27;97691.22;;;0.63;100.00
66627;BME280;53498;50.422;14.912;2023-03-11T09:06:53;97699.06;;;0.74;100.00
66627;BME280;53498;50.422;14.912;2023-03-11T09:09:19;97709.25;;;0.71;100.00
66627;BME280;53498;50.422;14.912;2023-03-11T09:11:48;97718.59;;;0.67;100.00
66627;BME280;53498;50.422;14.912;2023-03-11T09:14:14;97722.03;;;0.69;100.00
66627;BME280;53498;50.422;14.912;2023-03-11T09:16:40;97735.75;;;0.75;100.00
66627;BME280;53498;50.422;14.912;2023-03-11T09:19:06;97733.13;;;0.70;100.00
66627;BME280;53498;50.422;14.912;2023-03-11T09:21:33;97744.28;;;0.75;100.00
66627;BME280;53498;50.422;14.912;2023-03-11T09:23:59;97746.06;;;0.78;100.00
66627;BME280;53498;50.422;14.912;2023-03-11T09:26:25;97756.22;;;0.75;100.00
66627;BME280;53498;50.422;14.912;2023-03-11T09:28:51;97771.53;;;0.72;100.00
66627;BME280;53498;50.422;14.912;2023-03-11T09:31:17;97769.94;;;0.77;100.00
66627;BME280;53498;50.422;14.912;2023-03-11T09:33:44;97778.34;;;0.69;100.00
66627;BME280;53498;50.422;14.912;2023-03-11T09:36:15;97786.09;;;0.74;100.00
66627;BME280;53498;50.422;14.912;2023-03-11T09:38:42;97791.94;;;0.68;100.00
66627;BME280;53498;50.422;14.912;2023-03-11T09:51:42;97811.84;;;0.82;100.00
66627;BME280;53498;50.422;14.912;2023-03-11T09:54:11;97819.47;;;0.79;100.00
66627;BME280;53498;50.422;14.912;2023-03-11T09:56:38;97827.16;;;0.79;100.00
66627;BME280;53498;50.422;14.912;2023-03-11T09:59:16;97835.25;;;1.03;100.00
66627;BME280;53498;50.422;14.912;2023-03-11T10:01:47;97832.63;;;0.99;100.00
66627;BME280;53498;50.422;14.912;2023-03-11T10:04:22;97841.31;;;1.08;100.00
66627;BME280;53498;50.422;14.912;2023-03-11T10:06:51;97843.88;;;1.07;100.00
66627;BME280;53498;50.422;14.912;2023-03-11T10:09:40;97850.59;;;1.03;100.00
66627;BME280;53498;50.422;14.912;2023-03-11T10:15:24;97858.28;;;1.02;100.00
66627;BME280;53498;50.422;14.912;2023-03-11T10:18:09;97855.31;;;1.27;100.00
66627;BME280;53498;50.422;14.912;2023-03-11T10:20:59;97861.34;;;1.31;100.00
66627;BME280;53498;50.422;14.912;2023-03-11T10:26:34;97873.88;;;1.66;100.00
66627;BME280;53498;50.422;14.912;2023-03-11T10:31:52;97879.38;;;1.35;97.74
66627;BME280;53498;50.422;14.912;2023-03-11T10:34:29;97890.75;;;1.53;99.91
66627;BME280;53498;50.422;14.912;2023-03-11T10:37:02;97879.03;;;1.67;97.04
66627;BME280;53498;50.422;14.912;2023-03-11T10:39:33;97884.13;;;1.66;100.00
66627;BME280;53498;50.422;14.912;2023-03-11T10:42:04;97898.78;;;1.73;96.27
66627;BME280;53498;50.422;14.912;2023-03-11T10:44:35;97893.75;;;1.79;95.25
66627;BME280;53498;50.422;14.912;2023-03-11T10:47:02;97897.09;;;1.75;94.99
66627;BME280;53498;50.422;14.912;2023-03-11T10:49:28;97908.78;;;1.59;93.75
66627;BME280;53498;50.422;14.912;2023-03-11T10:51:55;97909.56;;;1.53;95.71
66627;BME280;53498;50.422;14.912;2023-03-11T10:54:33;97912.84;;;1.46;98.21
66627;BME280;53498;50.422;14.912;2023-03-11T10:57:03;97914.06;;;1.67;97.36
66627;BME280;53498;50.422;14.912;2023-03-11T10:59:30;97906.69;;;1.85;98.99
66627;BME280;53498;50.422;14.912;2023-03-11T11:04:44;97918.41;;;1.71;100.00
66627;BME280;53498;50.422;14.912;2023-03-11T11:07:30;97917.13;;;2.00;100.00
66627;BME280;53498;50.422;14.912;2023-03-11T11:12:55;97915.72;;;2.18;100.00
66627;BME280;53498;50.422;14.912;2023-03-11T11:18:01;97917.94;;;1.95;94.90
66627;BME280;53498;50.422;14.912;2023-03-11T11:20:28;97922.41;;;2.09;97.21
66627;BME280;53498;50.422;14.912;2023-03-11T11:22:57;97923.91;;;1.95;96.02
66627;BME280;53498;50.422;14.912;2023-03-11T11:25:36;97935.81;;;1.90;99.12
66627;BME280;53498;50.422;14.912;2023-03-11T11:28:23;97935.53;;;1.75;100.00
66627;BME280;53498;50.422;14.912;2023-03-11T11:31:02;97937.09;;;1.65;100.00
66627;BME280;53498;50.422;14.912;2023-03-11T11:33:48;97937.16;;;1.21;100.00
66627;BME280;53498;50.422;14.912;2023-03-11T11:36:15;97941.63;;;0.87;100.00
66627;BME280;53498;50.422;14.912;2023-03-11T11:38:41;97944.19;;;0.86;100.00
66627;BME280;53498;50.422;14.912;2023-03-11T11:41:08;97951.66;;;0.77;100.00
66627;BME280;53498;50.422;14.912;2023-03-11T11:46:27;97950.34;;;0.96;100.00
66627;BME280;53498;50.422;14.912;2023-03-11T11:51:41;97949.06;;;1.18;100.00
66627;BME280;53498;50.422;14.912;2023-03-11T11:54:16;97957.31;;;1.48;100.00
66627;BME280;53498;50.422;14.912;2023-03-11T11:56:48;97956.47;;;1.48;100.00
66627;BME280;53498;50.422;14.912;2023-03-11T11:59:16;97962.59;;;1.57;100.00
66627;BME280;53498;50.422;14.912;2023-03-11T12:04:57;97973.19;;;1.76;100.00
66627;BME280;53498;50.422;14.912;2023-03-11T12:07:31;97976.97;;;1.49;100.00
66627;BME280;53498;50.422;14.912;2023-03-11T12:10:19;97980.94;;;1.32;100.00
66627;BME280;53498;50.422;14.912;2023-03-11T12:13:13;97979.41;;;1.43;100.00
66627;BME280;53498;50.422;14.912;2023-03-11T12:18:39;97994.06;;;1.49;100.00
66627;BME280;53498;50.422;14.912;2023-03-11T12:27:21;97998.09;;;1.36;100.00
66627;BME280;53498;50.422;14.912;2023-03-11T12:29:54;97992.13;;;1.37;100.00
66627;BME280;53498;50.422;14.912;2023-03-11T12:32:35;97990.47;;;1.41;100.00
66627;BME280;53498;50.422;14.912;2023-03-11T12:37:43;97996.97;;;1.69;98.68
66627;BME280;53498;50.422;14.912;2023-03-11T12:45:59;98011.81;;;1.38;93.90
66627;BME280;53498;50.422;14.912;2023-03-11T12:50:54;98011.06;;;1.45;96.51
66627;BME280;53498;50.422;14.912;2023-03-11T12:53:40;98013.94;;;1.60;96.95
66627;BME280;53498;50.422;14.912;2023-03-11T13:09:31;98027.66;;;1.66;92.26
66627;BME280;53498;50.422;14.912;2023-03-11T13:11:57;98035.13;;;1.53;92.44
66627;BME280;53498;50.422;14.912;2023-03-11T13:14:33;98042.25;;;1.67;94.87
66627;BME280;53498;50.422;14.912;2023-03-11T13:17:27;98045.91;;;1.81;99.52
66627;BME280;53498;50.422;14.912;2023-03-11T13:19:56;98055.13;;;1.70;98.75
66627;BME280;53498;50.422;14.912;2023-03-11T13:28:49;98064.34;;;1.61;97.94
66627;BME280;53498;50.422;14.912;2023-03-11T13:34:14;98061.22;;;1.76;95.63
66627;BME280;53498;50.422;14.912;2023-03-11T13:39:22;98071.84;;;1.52;91.83
66627;BME280;53498;50.422;14.912;2023-03-11T13:41:52;98076.31;;;1.61;91.49
66627;BME280;53498;50.422;14.912;2023-03-11T13:46:49;98070.50;;;1.70;92.97
66627;BME280;53498;50.422;14.912;2023-03-11T13:52:16;98082.34;;;1.65;94.23
66627;BME280;53498;50.422;14.912;2023-03-11T13:55:00;98078.94;;;1.66;95.06
66627;BME280;53498;50.422;14.912;2023-03-11T13:57:29;98091.00;;;1.70;92.92
66627;BME280;53498;50.422;14.912;2023-03-11T13:59:56;98091.31;;;1.87;91.91
66627;BME280;53498;50.422;14.912;2023-03-11T14:02:28;98091.31;;;1.87;92.89
66627;BME280;53498;50.422;14.912;2023-03-11T14:04:56;98098.16;;;1.86;93.54
66627;BME280;53498;50.422;14.912;2023-03-11T14:07:28;98097.31;;;1.87;94.57
66627;BME280;53498;50.422;14.912;2023-03-11T14:12:38;98105.56;;;2.18;90.98
